Time;durP1;ratioP1;P1;durP2;ratioP2;P2;SDS_P1;SDS_P2;PMS_P1;PMS_P2;Temp;Humidity;BMP_temperature;BMP_pressure;BME280_temperature;BME280_humidity;BME280_pressure;Samples;Min_cycle;Max_cycle;Signal;HPM_P1;HPM_P2
2021/07/23 00:00:10;;;;;;;14.95;11.90;;;;;;;16.88;nan;100912.75;4999183;28;20094;-80
2021/07/23 00:02:36;;;;;;;14.93;11.65;;;;;;;16.94;nan;100918.78;4997734;28;20106;-80
2021/07/23 00:05:01;;;;;;;14.05;11.43;;;;;;;16.96;nan;100921.41;5015683;28;20042;-80
2021/07/23 00:07:26;;;;;;;15.43;12.80;;;;;;;16.90;nan;100914.47;5016431;28;20038;-80
2021/07/23 00:09:52;;;;;;;17.92;12.80;;;;;;;16.87;nan;100914.50;5012319;28;20035;-80
2021/07/23 00:12:17;;;;;;;17.08;12.45;;;;;;;16.93;nan;100911.69;4981137;28;20046;-80
2021/07/23 00:14:42;;;;;;;16.10;11.52;;;;;;;17.03;nan;100915.88;5017293;28;20400;-80
2021/07/23 00:17:07;;;;;;;17.42;12.57;;;;;;;17.13;nan;100910.28;5011538;28;20038;-79
2021/07/23 00:19:33;;;;;;;15.02;11.35;;;;;;;17.19;nan;100910.13;5014357;28;20038;-79
2021/07/23 00:21:58;;;;;;;15.43;12.57;;;;;;;17.04;nan;100912.28;5012933;28;20037;-79
2021/07/23 00:24:24;;;;;;;16.38;12.63;;;;;;;16.96;nan;100913.41;5013122;28;20038;-79
2021/07/23 00:26:51;;;;;;;15.52;12.63;;;;;;;17.06;nan;100909.59;4998006;28;20034;-79
2021/07/23 00:29:16;;;;;;;17.02;13.13;;;;;;;17.15;nan;100905.78;4980466;28;20121;-79
2021/07/23 00:31:42;;;;;;;17.10;13.30;;;;;;;17.15;nan;100905.78;5015112;28;20176;-79
2021/07/23 00:34:07;;;;;;;16.48;12.23;;;;;;;17.14;nan;100907.59;5013757;28;20280;-79
2021/07/23 00:36:32;;;;;;;16.73;12.38;;;;;;;17.17;nan;100907.50;4993150;28;20061;-80
2021/07/23 00:38:58;;;;;;;14.85;12.25;;;;;;;17.21;nan;100913.59;4992217;28;20093;-79
2021/07/23 00:41:23;;;;;;;16.50;11.70;;;;;;;17.26;nan;100914.34;4982540;28;20396;-79
2021/07/23 00:43:48;;;;;;;16.40;12.82;;;;;;;17.38;nan;100913.16;4986603;28;20038;-79
2021/07/23 00:46:14;;;;;;;15.50;12.38;;;;;;;17.33;nan;100912.41;5013832;28;20038;-80
2021/07/23 00:48:40;;;;;;;15.68;12.00;;;;;;;17.35;nan;100911.44;5015929;28;20026;-80
2021/07/23 00:51:06;;;;;;;14.73;11.45;;;;;;;17.35;nan;100914.13;4979868;28;20117;-80
2021/07/23 00:53:32;;;;;;;15.23;12.85;;;;;;;17.37;nan;100903.38;4999036;28;20034;-80
2021/07/23 00:56:00;;;;;;;16.45;13.30;;;;;;;17.39;nan;100906.88;4994754;28;20040;-80
2021/07/23 00:58:28;;;;;;;15.68;11.82;;;;;;;17.42;nan;100910.38;4978740;28;20094;-79
2021/07/23 01:00:58;;;;;;;16.88;12.18;;;;;;;17.30;nan;100903.56;4997169;28;20030;-79
2021/07/23 01:03:30;;;;;;;15.23;12.27;;;;;;;17.30;nan;100910.69;5009795;28;20034;-79
2021/07/23 01:05:56;;;;;;;14.20;11.05;;;;;;;17.39;nan;100899.75;4998190;28;20045;-79
2021/07/23 01:08:22;;;;;;;17.25;11.77;;;;;;;17.40;nan;100906.88;4995669;28;20030;-80
2021/07/23 01:10:49;;;;;;;16.27;12.40;;;;;;;17.44;nan;100905.84;5013411;28;20044;-80
2021/07/23 01:13:18;;;;;;;14.27;11.23;;;;;;;17.44;nan;100899.63;4998525;28;20041;-79
2021/07/23 01:15:45;;;;;;;14.10;11.55;;;;;;;17.46;nan;100901.34;4995138;28;20572;-80
2021/07/23 01:18:11;;;;;;;18.20;13.57;;;;;;;17.54;nan;100895.78;4997593;28;20041;-80
2021/07/23 01:20:39;;;;;;;16.70;13.20;;;;;;;17.59;nan;100899.19;4996177;28;20036;-80
2021/07/23 01:23:07;;;;;;;14.90;12.73;;;;;;;17.60;nan;100898.25;4996545;28;20061;-80
2021/07/23 01:25:34;;;;;;;18.65;12.88;;;;;;;17.54;nan;100893.13;5012088;28;20045;-80
2021/07/23 01:28:00;;;;;;;15.27;12.55;;;;;;;17.46;nan;100898.66;4995479;28;20115;-80
2021/07/23 01:30:35;;;;;;;17.25;12.95;;;;;;;17.50;nan;100892.34;4994090;28;20030;-80
2021/07/23 01:33:08;;;;;;;19.98;14.52;;;;;;;17.52;nan;100895.81;4980034;28;20058;-80
2021/07/23 01:35:36;;;;;;;17.10;13.63;;;;;;;17.63;nan;100892.84;4994312;28;20492;-80
2021/07/23 01:38:02;;;;;;;16.77;13.07;;;;;;;17.59;nan;100885.84;4978685;28;20034;-80
2021/07/23 01:40:30;;;;;;;14.73;12.38;;;;;;;17.61;nan;100885.81;4994861;28;20025;-80
2021/07/23 01:42:56;;;;;;;20.52;13.27;;;;;;;17.69;nan;100894.47;4994061;28;20038;-80
2021/07/23 01:45:21;;;;;;;17.38;13.60;;;;;;;17.78;nan;100888.84;5012772;28;20046;-80
2021/07/23 01:48:06;;;;;;;16.13;12.80;;;;;;;17.80;nan;100886.16;5012210;28;20041;-80
2021/07/23 01:50:32;;;;;;;16.92;13.70;;;;;;;17.79;nan;100874.63;4992869;28;20144;-80
2021/07/23 01:52:58;;;;;;;17.88;12.95;;;;;;;17.75;nan;100883.59;4975747;28;20038;-80
2021/07/23 01:55:29;;;;;;;17.13;13.37;;;;;;;17.60;nan;100873.38;4994054;28;20041;-80
2021/07/23 01:57:55;;;;;;;16.00;13.35;;;;;;;17.47;nan;100875.53;5009856;28;20348;-80
2021/07/23 02:00:21;;;;;;;17.48;12.80;;;;;;;17.54;nan;100871.75;4991994;28;20034;-80
2021/07/23 02:02:48;;;;;;;17.63;13.77;;;;;;;17.64;nan;100875.03;4993253;28;20033;-80
2021/07/23 02:05:24;;;;;;;16.70;14.15;;;;;;;17.75;nan;100872.91;4989023;28;20102;-80
2021/07/23 02:07:49;;;;;;;16.17;13.48;;;;;;;17.78;nan;100867.47;4991644;28;20038;-80
2021/07/23 02:10:17;;;;;;;16.85;13.23;;;;;;;17.75;nan;100863.09;4991361;28;20034;-80
2021/07/23 02:12:44;;;;;;;18.70;13.55;;;;;;;17.77;nan;100873.75;4993445;28;20032;-80
2021/07/23 02:15:23;;;;;;;15.73;13.13;;;;;;;17.77;nan;100873.75;4988906;28;20046;-80
2021/07/23 02:17:49;;;;;;;16.98;12.77;;;;;;;17.75;nan;100870.25;5010806;28;20056;-80
2021/07/23 02:20:20;;;;;;;17.50;13.70;;;;;;;17.69;nan;100867.78;4994111;28;20027;-80
2021/07/23 02:22:45;;;;;;;15.85;12.50;;;;;;;17.76;nan;100863.97;5011768;28;20032;-80
2021/07/23 02:25:16;;;;;;;17.65;15.07;;;;;;;17.78;nan;100856.78;4993459;28;20038;-80
2021/07/23 02:27:42;;;;;;;14.70;12.52;;;;;;;17.82;nan;100855.84;4994140;28;20033;-80
2021/07/23 02:30:08;;;;;;;16.10;14.05;;;;;;;17.90;nan;100851.13;5010765;28;20113;-80
2021/07/23 02:32:42;;;;;;;15.60;13.65;;;;;;;17.88;nan;100852.97;4995005;28;20038;-80
2021/07/23 02:35:08;;;;;;;18.77;14.98;;;;;;;17.82;nan;100846.94;4993746;28;20036;-80
2021/07/23 02:38:03;;;;;;;17.27;13.82;;;;;;;17.82;nan;100847.81;4985435;28;20117;-80
2021/07/23 02:40:29;;;;;;;16.33;13.85;;;;;;;17.84;nan;100851.31;4995250;28;20037;-80
2021/07/23 02:42:59;;;;;;;16.98;13.23;;;;;;;17.82;nan;100849.63;5010893;28;20227;-80
2021/07/23 02:45:25;;;;;;;14.15;11.85;;;;;;;17.83;nan;100854.91;4995645;28;20033;-80
2021/07/23 02:47:51;;;;;;;15.75;12.93;;;;;;;17.87;nan;100848.56;4974868;28;20527;-80
2021/07/23 02:50:19;;;;;;;16.15;13.73;;;;;;;17.93;nan;100853.69;4994627;28;20038;-80
2021/07/23 02:52:47;;;;;;;15.57;13.13;;;;;;;17.88;nan;100844.94;4994394;28;20049;-80
2021/07/23 02:55:14;;;;;;;16.23;12.77;;;;;;;17.82;nan;100849.63;4994512;28;20057;-80
2021/07/23 02:57:41;;;;;;;15.10;13.15;;;;;;;17.81;nan;100845.19;4993766;28;20034;-80
2021/07/23 03:00:07;;;;;;;19.08;15.45;;;;;;;17.75;nan;100843.56;5004660;28;20030;-80
2021/07/23 03:02:36;;;;;;;17.90;15.13;;;;;;;17.72;nan;100835.66;5010277;28;20030;-80
2021/07/23 03:05:01;;;;;;;19.98;14.85;;;;;;;17.77;nan;100836.38;4992236;28;20031;-80
2021/07/23 03:07:27;;;;;;;17.42;14.57;;;;;;;17.83;nan;100838.88;4993309;28;20064;-80
2021/07/23 03:09:53;;;;;;;17.08;13.75;;;;;;;17.85;nan;100839.72;4991014;28;20516;-80
2021/07/23 03:12:20;;;;;;;22.00;16.48;;;;;;;17.74;nan;100837.34;4993653;28;20060;-80
2021/07/23 03:14:51;;;;;;;21.13;15.00;;;;;;;17.68;nan;100845.56;5008277;28;20022;-80
2021/07/23 03:17:24;;;;;;;17.98;14.98;;;;;;;17.51;nan;100851.38;4992626;28;20392;-80
2021/07/23 03:19:54;;;;;;;18.27;15.23;;;;;;;17.40;nan;100839.28;4991949;28;20516;-80
2021/07/23 03:22:21;;;;;;;19.85;15.77;;;;;;;17.37;nan;100840.25;4995291;28;20050;-80
2021/07/23 03:24:49;;;;;;;17.10;14.23;;;;;;;17.38;nan;100841.13;4992893;28;20106;-80
2021/07/23 03:27:35;;;;;;;16.63;13.57;;;;;;;17.45;nan;100837.38;5010195;28;20046;-80
2021/07/23 03:30:12;;;;;;;17.85;13.88;;;;;;;17.51;nan;100835.38;4992236;28;20117;-80
2021/07/23 03:32:38;;;;;;;18.58;15.10;;;;;;;17.62;nan;100836.84;4995486;28;20034;-80
2021/07/23 03:35:05;;;;;;;20.92;15.57;;;;;;;17.70;nan;100833.00;4992336;28;20042;-80
2021/07/23 03:37:41;;;;;;;19.88;15.82;;;;;;;17.78;nan;100830.09;4992976;28;20046;-81
2021/07/23 03:40:12;;;;;;;18.48;14.88;;;;;;;17.71;nan;100834.78;4994628;28;20141;-80
2021/07/23 03:42:42;;;;;;;19.58;14.50;;;;;;;17.73;nan;100832.91;4992677;28;20061;-80
2021/07/23 03:45:16;;;;;;;20.08;15.95;;;;;;;17.83;nan;100817.53;4979400;28;20062;-80
2021/07/23 03:47:44;;;;;;;17.77;14.40;;;;;;;17.85;nan;100826.34;4977076;28;20026;-81
2021/07/23 03:50:10;;;;;;;16.42;13.63;;;;;;;17.90;nan;100824.41;4992629;28;20034;-80
2021/07/23 03:52:39;;;;;;;18.48;13.00;;;;;;;18.01;nan;100829.41;4993924;28;20038;-80
2021/07/23 03:55:37;;;;;;;21.83;14.52;;;;;;;17.80;nan;100827.44;4967229;28;20065;-80
2021/07/23 03:58:04;;;;;;;17.70;14.95;;;;;;;17.77;nan;100833.72;4988557;28;20069;-81
2021/07/23 04:00:29;;;;;;;15.40;13.30;;;;;;;17.76;nan;100829.28;4990150;28;20057;-80
2021/07/23 04:02:56;;;;;;;15.27;12.90;;;;;;;17.82;nan;100826.47;5005307;28;20034;-81
2021/07/23 04:05:22;;;;;;;18.48;13.82;;;;;;;17.84;nan;100827.28;4994481;28;20045;-81
2021/07/23 04:07:48;;;;;;;16.98;14.02;;;;;;;17.88;nan;100825.38;5010874;28;20235;-81
2021/07/23 04:10:15;;;;;;;19.48;13.95;;;;;;;17.90;nan;100831.56;4991757;28;20042;-80
2021/07/23 04:12:41;;;;;;;20.23;14.32;;;;;;;17.92;nan;100824.34;4993213;28;20030;-81
2021/07/23 04:15:09;;;;;;;16.60;14.02;;;;;;;18.04;nan;100820.44;5010604;28;20033;-81
2021/07/23 04:17:50;;;;;;;15.82;12.68;;;;;;;18.15;nan;100829.81;4990644;28;20038;-82
2021/07/23 04:20:16;;;;;;;22.05;15.00;;;;;;;18.24;nan;100819.78;4988466;28;20488;-82
2021/07/23 04:22:43;;;;;;;17.88;13.38;;;;;;;18.26;nan;100818.81;4986147;28;20042;-82
2021/07/23 04:25:18;;;;;;;18.52;14.77;;;;;;;18.31;nan;100824.88;4976636;28;20992;-82
2021/07/23 04:27:43;;;;;;;19.42;15.02;;;;;;;18.32;nan;100828.41;5008165;28;20041;-82
2021/07/23 04:30:16;;;;;;;17.45;14.13;;;;;;;18.34;nan;100830.13;4990812;28;20116;-81
2021/07/23 04:33:10;;;;;;;18.23;14.80;;;;;;;18.37;nan;100822.00;5008916;28;20046;-81
2021/07/23 04:35:39;;;;;;;18.85;15.35;;;;;;;18.44;nan;100829.78;4989463;28;20034;-81
2021/07/23 04:38:04;;;;;;;16.55;14.45;;;;;;;18.51;nan;100828.66;4991415;28;20037;-82
2021/07/23 04:40:37;;;;;;;18.67;15.20;;;;;;;18.47;nan;100835.91;4993285;28;20026;-82
2021/07/23 04:43:04;;;;;;;19.42;14.70;;;;;;;18.57;nan;100839.13;4996056;28;20046;-81
2021/07/23 04:45:31;;;;;;;20.73;15.50;;;;;;;18.61;nan;100838.97;4988722;28;20554;-82
2021/07/23 04:48:03;;;;;;;;;;;;;;;18.63;nan;100836.25;4992369;28;20026;-81
2021/07/23 04:50:35;;;;;;;19.13;13.63;;;;;;;18.73;nan;100835.03;4975865;28;19932;-81
2021/07/23 04:53:19;;;;;;;18.27;15.10;;;;;;;18.79;nan;100825.94;5005682;28;20053;-82
2021/07/23 04:56:07;;;;;;;20.20;16.05;;;;;;;18.87;nan;100837.22;4989871;28;20034;-83
2021/07/23 04:58:34;;;;;;;18.85;14.93;;;;;;;19.03;nan;100835.75;4980475;28;20025;-83
2021/07/23 05:01:00;;;;;;;23.05;18.58;;;;;;;19.14;nan;100829.13;4989717;28;20508;-83
2021/07/23 05:03:34;;;;;;;21.83;16.92;;;;;;;19.20;nan;100832.47;5010075;28;20485;-83
2021/07/23 05:06:01;;;;;;;19.83;15.90;;;;;;;19.24;nan;100838.56;5007085;28;20109;-83
2021/07/23 05:08:27;;;;;;;20.88;16.50;;;;;;;19.23;nan;100837.69;4990730;28;20035;-83
2021/07/23 05:10:52;;;;;;;21.55;16.48;;;;;;;19.30;nan;100832.09;4989897;28;20041;-83
2021/07/23 05:13:19;;;;;;;21.75;16.30;;;;;;;19.29;nan;100841.06;5007910;28;20109;-83
2021/07/23 05:15:45;;;;;;;20.45;15.80;;;;;;;19.31;nan;100834.75;5009436;28;20029;-83
2021/07/23 05:18:11;;;;;;;21.63;16.63;;;;;;;19.38;nan;100822.84;5005841;28;20066;-83
2021/07/23 05:20:37;;;;;;;20.08;15.90;;;;;;;19.45;nan;100824.38;4991706;28;20124;-83
2021/07/23 05:23:03;;;;;;;20.83;15.93;;;;;;;19.47;nan;100824.31;5006145;28;20049;-83
2021/07/23 05:25:28;;;;;;;20.65;15.23;;;;;;;19.52;nan;100822.34;4952789;28;20042;-83
2021/07/23 05:27:55;;;;;;;20.25;15.20;;;;;;;19.62;nan;100815.69;5008462;28;20037;-83
2021/07/23 05:30:20;;;;;;;18.33;14.90;;;;;;;19.71;nan;100825.19;5001737;28;20041;-83
2021/07/23 05:32:46;;;;;;;19.63;15.00;;;;;;;19.80;nan;100821.28;5005269;28;20066;-83
2021/07/23 05:35:11;;;;;;;20.52;17.27;;;;;;;19.79;nan;100820.41;5007040;28;20034;-83
2021/07/23 05:37:36;;;;;;;18.95;16.17;;;;;;;19.88;nan;100820.03;4956596;28;20038;-83
2021/07/23 05:40:02;;;;;;;19.08;15.77;;;;;;;19.94;nan;100813.56;4999464;28;20048;-83
2021/07/23 05:42:27;;;;;;;22.38;16.45;;;;;;;20.01;nan;100809.69;4987668;28;20053;-83
2021/07/23 05:44:52;;;;;;;23.40;17.45;;;;;;;20.11;nan;100807.50;5004867;28;20042;-83
2021/07/23 05:47:18;;;;;;;20.13;16.50;;;;;;;20.19;nan;100804.50;5005984;28;20058;-83
2021/07/23 05:49:44;;;;;;;19.55;16.80;;;;;;;20.12;nan;100811.91;4987097;28;20084;-83
2021/07/23 05:52:09;;;;;;;24.00;16.27;;;;;;;20.23;nan;100819.53;4978335;28;20401;-83
2021/07/23 05:54:36;;;;;;;21.23;15.93;;;;;;;20.39;nan;100814.41;5012358;28;20025;-84
2021/07/23 05:57:01;;;;;;;21.15;16.77;;;;;;;20.56;nan;100815.44;5011727;28;20057;-83
2021/07/23 05:59:27;;;;;;;22.40;17.27;;;;;;;20.58;nan;100816.25;4993701;28;20033;-83
2021/07/23 06:01:52;;;;;;;20.75;17.08;;;;;;;20.52;nan;100821.00;4986394;28;20056;-83
2021/07/23 06:04:17;;;;;;;18.83;16.10;;;;;;;20.50;nan;100813.00;5003916;28;20034;-83
2021/07/23 06:06:43;;;;;;;20.58;17.10;;;;;;;20.52;nan;100819.19;5006434;28;20037;-83
2021/07/23 06:09:08;;;;;;;23.00;18.30;;;;;;;20.42;nan;100825.88;4986436;28;20056;-83
2021/07/23 06:11:34;;;;;;;22.58;16.30;;;;;;;20.43;nan;100821.38;4987681;28;20043;-83
2021/07/23 06:13:59;;;;;;;21.95;17.55;;;;;;;20.49;nan;100822.00;4989204;28;20109;-83
2021/07/23 06:16:24;;;;;;;22.27;17.98;;;;;;;20.50;nan;100823.72;4986950;28;20044;-83
2021/07/23 06:18:50;;;;;;;21.25;17.63;;;;;;;20.52;nan;100826.34;4984286;28;20042;-83
2021/07/23 06:21:15;;;;;;;20.88;17.00;;;;;;;20.49;nan;100815.78;4988487;28;20037;-83
2021/07/23 06:23:40;;;;;;;23.05;17.88;;;;;;;20.40;nan;100819.69;4984838;28;20034;-83
2021/07/23 06:26:06;;;;;;;22.98;17.80;;;;;;;20.31;nan;100822.78;5005696;28;20506;-83
2021/07/23 06:28:33;;;;;;;20.30;16.35;;;;;;;20.36;nan;100827.00;5002781;28;20061;-83
2021/07/23 06:31:03;;;;;;;24.25;17.08;;;;;;;20.48;nan;100814.00;4986819;28;20046;-83
2021/07/23 06:33:28;;;;;;;25.58;17.60;;;;;;;20.50;nan;100818.38;5003514;28;20038;-83
2021/07/23 06:35:54;;;;;;;23.23;18.45;;;;;;;20.57;nan;100811.84;4986295;28;20465;-83
2021/07/23 06:38:19;;;;;;;21.15;16.77;;;;;;;20.72;nan;100822.81;4970409;28;20045;-83
2021/07/23 06:40:45;;;;;;;21.10;17.27;;;;;;;20.80;nan;100826.03;4980910;28;20039;-83
2021/07/23 06:43:10;;;;;;;26.65;20.08;;;;;;;20.91;nan;100830.97;4978065;28;20096;-83
2021/07/23 06:45:36;;;;;;;25.70;19.33;;;;;;;20.94;nan;100829.00;4983532;28;20034;-83
2021/07/23 06:48:02;;;;;;;23.45;17.77;;;;;;;21.18;nan;100820.78;4995107;28;20038;-83
2021/07/23 06:50:27;;;;;;;20.95;16.45;;;;;;;21.52;nan;100825.50;4999133;28;20121;-83
2021/07/23 06:52:52;;;;;;;19.67;16.15;;;;;;;21.83;nan;100821.34;4999887;28;20042;-84
2021/07/23 06:55:17;;;;;;;19.00;15.88;;;;;;;22.08;nan;100818.31;4985581;28;20042;-84
2021/07/23 06:57:43;;;;;;;21.95;17.90;;;;;;;22.22;nan;100817.69;5003029;28;20034;-84
2021/07/23 07:00:10;;;;;;;19.42;16.70;;;;;;;22.47;nan;100820.84;5003645;28;20030;-84
2021/07/23 07:02:35;;;;;;;24.90;18.90;;;;;;;22.77;nan;100817.56;5001849;28;20053;-84
2021/07/23 07:05:02;;;;;;;24.40;17.38;;;;;;;22.94;nan;100822.03;4971029;28;20034;-84
2021/07/23 07:07:27;;;;;;;21.08;16.40;;;;;;;23.03;nan;100818.91;4984209;28;20034;-84
2021/07/23 07:09:52;;;;;;;23.90;17.08;;;;;;;23.02;nan;100816.28;5000796;28;20042;-84
2021/07/23 07:12:18;;;;;;;25.27;16.85;;;;;;;23.01;nan;100815.41;4984911;28;20042;-84
2021/07/23 07:14:43;;;;;;;23.83;16.63;;;;;;;23.03;nan;100816.19;4998263;28;20037;-84
2021/07/23 07:17:08;;;;;;;21.08;15.60;;;;;;;23.07;nan;100817.75;4985111;28;20049;-84
2021/07/23 07:19:34;;;;;;;19.13;14.80;;;;;;;23.12;nan;100813.00;5003652;28;20109;-84
2021/07/23 07:21:59;;;;;;;22.30;15.35;;;;;;;23.23;nan;100815.09;5001484;28;20515;-84
2021/07/23 07:24:24;;;;;;;20.42;15.55;;;;;;;23.44;nan;100818.44;4986892;28;20038;-84
2021/07/23 07:26:50;;;;;;;19.15;15.23;;;;;;;23.48;nan;100813.78;4967139;28;20038;-84
2021/07/23 07:29:16;;;;;;;18.50;15.02;;;;;;;23.45;nan;100820.19;5007824;28;20072;-84
2021/07/23 07:31:41;;;;;;;22.48;15.50;;;;;;;23.35;nan;100811.75;4987243;28;20035;-84
2021/07/23 07:34:07;;;;;;;19.75;15.02;;;;;;;23.31;nan;100812.84;4973215;28;20416;-84
2021/07/23 07:36:33;;;;;;;18.38;13.73;;;;;;;23.35;nan;100818.97;4983388;28;20037;-84
2021/07/23 07:38:59;;;;;;;18.85;14.60;;;;;;;23.37;nan;100814.34;5005410;28;20432;-84
2021/07/23 07:41:25;;;;;;;18.08;15.48;;;;;;;23.54;nan;100814.28;4988571;28;20113;-84
2021/07/23 07:43:51;;;;;;;20.13;15.35;;;;;;;23.42;nan;100814.97;4986742;28;20022;-84
2021/07/23 07:46:17;;;;;;;17.35;14.20;;;;;;;23.16;nan;100814.59;4989068;28;20042;-84
2021/07/23 07:48:42;;;;;;;18.83;13.93;;;;;;;23.23;nan;100811.56;5004150;28;20026;-84
2021/07/23 07:51:08;;;;;;;19.98;16.45;;;;;;;23.30;nan;100813.81;5007312;28;20038;-84
2021/07/23 07:53:35;;;;;;;20.27;15.25;;;;;;;23.37;nan;100806.25;4980299;28;20052;-84
2021/07/23 07:56:00;;;;;;;19.75;15.13;;;;;;;23.45;nan;100806.75;4987595;28;20440;-84
2021/07/23 07:58:26;;;;;;;17.30;14.68;;;;;;;23.54;nan;100808.03;4988523;28;20121;-84
2021/07/23 08:00:51;;;;;;;18.63;14.68;;;;;;;23.52;nan;100800.03;5007393;28;20128;-84
2021/07/23 08:03:16;;;;;;;24.75;17.55;;;;;;;23.41;nan;100802.47;5004921;28;20050;-84
2021/07/23 08:05:42;;;;;;;23.10;19.55;;;;;;;23.48;nan;100814.63;4986557;28;20496;-84
2021/07/23 08:08:09;;;;;;;15.93;13.95;;;;;;;23.56;nan;100801.59;4990485;28;20038;-84
2021/07/23 08:10:36;;;;;;;15.98;12.50;;;;;;;23.48;nan;100801.19;4999919;28;20042;-84
2021/07/23 08:13:03;;;;;;;15.57;12.35;;;;;;;23.48;nan;100800.31;5007249;28;20392;-84
2021/07/23 08:15:28;;;;;;;14.50;12.20;;;;;;;23.54;nan;100791.88;4985878;28;20038;-85
2021/07/23 08:17:54;;;;;;;14.27;12.38;;;;;;;23.46;nan;100800.38;4969728;28;20099;-85
2021/07/23 08:20:19;;;;;;;14.93;11.85;;;;;;;23.50;nan;100791.19;4987559;28;20056;-84
2021/07/23 08:22:45;;;;;;;14.95;12.10;;;;;;;23.60;nan;100792.38;5005475;28;20038;-84
2021/07/23 08:25:11;;;;;;;23.58;19.65;;;;;;;23.75;nan;100795.22;5002282;28;20033;-84
2021/07/23 08:27:36;;;;;;;15.45;13.35;;;;;;;23.90;nan;100794.34;4989242;28;20040;-85
2021/07/23 08:30:02;;;;;;;14.52;12.73;;;;;;;23.87;nan;100794.53;4993408;28;20035;-84
2021/07/23 08:32:31;;;;;;;17.98;13.48;;;;;;;23.78;nan;100795.03;5002861;28;20042;-84
2021/07/23 08:34:57;;;;;;;14.88;12.50;;;;;;;23.93;nan;100790.59;4968258;28;20045;-84
2021/07/23 08:37:23;;;;;;;17.98;13.88;;;;;;;24.08;nan;100783.44;4973470;28;20476;-84
2021/07/23 08:39:49;;;;;;;16.60;14.50;;;;;;;24.15;nan;100788.38;4994499;28;20061;-84
2021/07/23 08:42:25;;;;;;;16.00;14.30;;;;;;;24.30;nan;100780.34;4989673;28;20054;-84
2021/07/23 08:44:51;;;;;;;19.92;16.67;;;;;;;24.54;nan;100784.28;4969357;28;20418;-84
2021/07/23 08:47:17;;;;;;;21.60;14.98;;;;;;;24.78;nan;100779.22;4988809;28;20033;-84
2021/07/23 08:49:43;;;;;;;18.40;15.20;;;;;;;25.01;nan;100782.34;4986346;28;20038;-85
2021/07/23 08:52:09;;;;;;;18.27;15.23;;;;;;;25.28;nan;100779.75;4972603;28;20092;-84
2021/07/23 08:54:34;;;;;;;15.88;13.68;;;;;;;25.54;nan;100778.97;4987190;28;20034;-85
2021/07/23 08:56:59;;;;;;;17.70;15.00;;;;;;;25.77;nan;100777.44;4986203;28;20068;-84
2021/07/23 08:59:25;;;;;;;25.80;20.85;;;;;;;26.10;nan;100775.34;4988228;28;20046;-85
2021/07/23 09:02:00;;;;;;;19.80;15.75;;;;;;;26.23;nan;100771.72;4984806;28;20113;-85
2021/07/23 09:04:31;;;;;;;18.17;15.88;;;;;;;26.27;nan;100774.19;4967264;28;20038;-85
2021/07/23 09:07:15;;;;;;;21.98;16.85;;;;;;;26.32;nan;100772.06;4987792;28;20037;-85
2021/07/23 09:09:53;;;;;;;17.02;14.38;;;;;;;26.49;nan;100768.16;4971916;28;20054;-85
2021/07/23 09:12:19;;;;;;;17.48;13.95;;;;;;;26.42;nan;100768.59;4981763;28;20511;-85
2021/07/23 09:14:44;;;;;;;16.73;14.32;;;;;;;26.62;nan;100764.56;4981547;28;20034;-85
2021/07/23 09:17:10;;;;;;;20.17;18.02;;;;;;;26.62;nan;100756.44;5001830;28;20046;-85
2021/07/23 09:19:38;;;;;;;18.05;15.25;;;;;;;26.71;nan;100756.78;4987196;28;20145;-85
2021/07/23 09:22:05;;;;;;;19.50;15.18;;;;;;;26.67;nan;100750.69;4996064;28;20424;-85
2021/07/23 09:24:49;;;;;;;14.18;12.68;;;;;;;26.43;nan;100758.66;5002411;28;20413;-85
2021/07/23 09:27:30;;;;;;;15.35;13.18;;;;;;;26.33;nan;100750.31;4997806;28;20030;-85
2021/07/23 09:29:57;;;;;;;15.83;12.13;;;;;;;26.48;nan;100750.22;4985688;28;20060;-85
2021/07/23 09:32:26;;;;;;;24.70;22.08;;;;;;;26.82;nan;100743.34;5003398;28;20038;-85
2021/07/23 09:35:06;;;;;;;13.52;12.07;;;;;;;26.99;nan;100750.28;5002701;28;20481;-85
2021/07/23 09:37:32;;;;;;;12.98;11.63;;;;;;;27.11;nan;100742.09;5001123;28;20030;-85
2021/07/23 09:39:57;;;;;;;15.38;12.40;;;;;;;27.22;nan;100740.50;5002637;28;20539;-85
2021/07/23 09:42:22;;;;;;;13.40;11.95;;;;;;;27.15;nan;100736.50;4986255;28;20481;-85
2021/07/23 09:45:00;;;;;;;14.13;12.07;;;;;;;27.10;nan;100737.69;5003511;28;20038;-85
2021/07/23 09:47:25;;;;;;;15.75;13.00;;;;;;;27.38;nan;100729.41;5004714;28;20037;-85
2021/07/23 09:49:52;;;;;;;16.27;11.93;;;;;;;27.31;nan;100729.00;5002223;28;20046;-83
2021/07/23 09:52:21;;;;;;;15.25;12.05;;;;;;;27.49;nan;100733.06;4993763;28;20081;-84
2021/07/23 09:54:47;;;;;;;14.32;12.35;;;;;;;27.27;nan;100731.09;4994170;28;20034;-84
2021/07/23 09:57:13;;;;;;;15.05;13.40;;;;;;;27.48;nan;100731.34;4976558;28;20100;-84
2021/07/23 10:00:01;;;;;;;15.60;12.52;;;;;;;27.46;nan;100727.88;4974857;28;20046;-84
2021/07/23 10:02:28;;;;;;;12.63;11.05;;;;;;;27.57;nan;100728.94;4981602;28;20417;-83
2021/07/23 10:05:05;;;;;;;11.80;10.55;;;;;;;27.73;nan;100724.94;4971586;28;20055;-84
2021/07/23 10:07:40;;;;;;;12.98;11.25;;;;;;;27.45;nan;100725.28;4999822;28;20041;-83
2021/07/23 10:10:08;;;;;;;16.85;12.63;;;;;;;27.52;nan;100721.13;5005745;28;20472;-83
2021/07/23 10:12:35;;;;;;;17.00;12.48;;;;;;;27.68;nan;100715.44;5006518;28;20044;-84
2021/07/23 10:15:01;;;;;;;14.45;12.88;;;;;;;27.84;nan;100709.75;5006064;28;20049;-84
2021/07/23 10:17:28;;;;;;;13.45;12.05;;;;;;;27.96;nan;100715.09;4983770;28;20030;-85
2021/07/23 10:19:57;;;;;;;16.45;13.25;;;;;;;28.18;nan;100708.88;4985387;28;20168;-84
2021/07/23 10:22:25;;;;;;;14.50;12.13;;;;;;;27.99;nan;100707.72;4959632;28;20038;-84
2021/07/23 10:24:50;;;;;;;13.35;11.80;;;;;;;27.91;nan;100700.16;4980647;28;20049;-83
2021/07/23 10:27:16;;;;;;;14.02;10.95;;;;;;;27.98;nan;100706.84;4970567;28;20034;-84
2021/07/23 10:29:46;;;;;;;15.02;13.07;;;;;;;27.68;nan;100699.16;4984275;28;20511;-84
2021/07/23 10:32:24;;;;;;;16.70;11.10;;;;;;;27.41;nan;100704.81;5000748;28;20041;-84
2021/07/23 10:34:56;;;;;;;12.93;11.50;;;;;;;26.99;nan;100690.69;4979417;28;20089;-85
2021/07/23 10:37:42;;;;;;;17.00;13.55;;;;;;;27.31;nan;100693.78;4964113;28;20034;-85
2021/07/23 10:40:07;;;;;;;14.45;12.95;;;;;;;27.64;nan;100690.41;4968853;28;20050;-83
2021/07/23 10:42:42;;;;;;;23.48;17.23;;;;;;;27.86;nan;100686.94;4986331;28;20038;-83
2021/07/23 10:45:41;;;;;;;21.10;17.13;;;;;;;28.13;nan;100689.38;4973098;28;20126;-82
2021/07/23 10:48:06;;;;;;;17.65;15.38;;;;;;;28.31;nan;100692.53;5001113;28;20050;-84
2021/07/23 10:50:38;;;;;;;13.25;10.90;;;;;;;28.31;nan;100687.09;4985580;28;20033;-84
2021/07/23 10:53:25;;;;;;;12.35;10.82;;;;;;;28.01;nan;100684.94;4973050;28;20038;-83
2021/07/23 10:55:52;;;;;;;14.55;10.10;;;;;;;28.31;nan;100684.38;4983706;28;20034;-84
2021/07/23 10:58:20;;;;;;;14.35;11.82;;;;;;;28.49;nan;100683.97;4987860;28;20125;-84
2021/07/23 11:00:47;;;;;;;12.15;10.45;;;;;;;28.66;nan;100680.75;4970205;28;20042;-82
2021/07/23 11:03:39;;;;;;;11.10;9.90;;;;;;;28.87;nan;100677.31;4988038;28;20029;-84
2021/07/23 11:06:25;;;;;;;12.00;10.80;;;;;;;29.01;nan;100675.22;4985730;28;20034;-84
2021/07/23 11:08:53;;;;;;;17.63;13.45;;;;;;;29.06;nan;100672.16;4982341;28;20446;-85
2021/07/23 11:11:21;;;;;;;19.05;13.98;;;;;;;29.28;nan;100672.09;5001675;28;20034;-85
2021/07/23 11:13:46;;;;;;;11.52;10.30;;;;;;;29.45;nan;100669.84;4997177;28;20108;-84
2021/07/23 11:16:17;;;;;;;18.75;12.70;;;;;;;29.79;nan;100670.63;4995883;28;20026;-84
2021/07/23 11:19:00;;;;;;;11.63;9.37;;;;;;;29.81;nan;100667.75;4991740;28;20154;-85
2021/07/23 11:21:36;;;;;;;18.77;15.48;;;;;;;29.99;nan;100668.06;4996107;28;20031;-84
2021/07/23 11:24:14;;;;;;;11.82;9.45;;;;;;;30.03;nan;100662.22;4992115;28;20034;-84
2021/07/23 11:26:49;;;;;;;9.95;8.95;;;;;;;30.03;nan;100667.66;4998983;28;20437;-84
2021/07/23 11:29:29;;;;;;;10.07;8.90;;;;;;;29.95;nan;100667.47;4984026;28;20046;-84
2021/07/23 11:32:02;;;;;;;10.88;9.77;;;;;;;29.79;nan;100661.59;4997939;28;20110;-84